sensor_id;sensor_type;location;lat;lon;timestamp;P1;durP1;ratioP1;P2;durP2;ratioP2
58472;SDS011;44775;51.564;5.460;2023-02-15T00:01:47;72.63;;;37.97;;
58472;SDS011;44775;51.564;5.460;2023-02-15T00:04:14;71.65;;;36.35;;
58472;SDS011;44775;51.564;5.460;2023-02-15T00:06:41;77.85;;;38.65;;
58472;SDS011;44775;51.564;5.460;2023-02-15T00:09:06;75.43;;;37.83;;
58472;SDS011;44775;51.564;5.460;2023-02-15T00:11:33;78.03;;;39.25;;
58472;SDS011;44775;51.564;5.460;2023-02-15T00:14:05;75.78;;;38.22;;
58472;SDS011;44775;51.564;5.460;2023-02-15T00:16:31;71.90;;;37.90;;
58472;SDS011;44775;51.564;5.460;2023-02-15T00:18:57;71.88;;;36.20;;
58472;SDS011;44775;51.564;5.460;2023-02-15T00:21:26;71.70;;;36.20;;
58472;SDS011;44775;51.564;5.460;2023-02-15T00:23:52;73.72;;;37.72;;
58472;SDS011;44775;51.564;5.460;2023-02-15T00:26:17;69.18;;;35.70;;
58472;SDS011;44775;51.564;5.460;2023-02-15T00:28:43;72.55;;;37.58;;
58472;SDS011;44775;51.564;5.460;2023-02-15T00:31:09;77.82;;;36.75;;
58472;SDS011;44775;51.564;5.460;2023-02-15T00:33:35;70.70;;;36.78;;
58472;SDS011;44775;51.564;5.460;2023-02-15T00:36:02;77.63;;;40.65;;
58472;SDS011;44775;51.564;5.460;2023-02-15T00:38:30;82.25;;;41.05;;
58472;SDS011;44775;51.564;5.460;2023-02-15T00:40:56;80.05;;;41.60;;
58472;SDS011;44775;51.564;5.460;2023-02-15T00:43:23;88.38;;;43.15;;
58472;SDS011;44775;51.564;5.460;2023-02-15T00:45:49;84.78;;;42.25;;
58472;SDS011;44775;51.564;5.460;2023-02-15T00:48:15;82.40;;;42.05;;
58472;SDS011;44775;51.564;5.460;2023-02-15T00:50:40;87.72;;;43.13;;
58472;SDS011;44775;51.564;5.460;2023-02-15T00:53:06;91.60;;;44.33;;
58472;SDS011;44775;51.564;5.460;2023-02-15T00:55:31;89.43;;;44.60;;
58472;SDS011;44775;51.564;5.460;2023-02-15T00:57:56;97.78;;;51.95;;
58472;SDS011;44775;51.564;5.460;2023-02-15T01:00:22;92.57;;;47.78;;
58472;SDS011;44775;51.564;5.460;2023-02-15T01:02:47;101.70;;;50.15;;
58472;SDS011;44775;51.564;5.460;2023-02-15T01:05:13;96.43;;;47.03;;
58472;SDS011;44775;51.564;5.460;2023-02-15T01:07:39;98.10;;;47.40;;
58472;SDS011;44775;51.564;5.460;2023-02-15T01:10:05;99.75;;;49.15;;
58472;SDS011;44775;51.564;5.460;2023-02-15T01:12:32;98.90;;;51.65;;
58472;SDS011;44775;51.564;5.460;2023-02-15T01:14:58;106.10;;;57.17;;
58472;SDS011;44775;51.564;5.460;2023-02-15T01:17:23;100.72;;;52.53;;
58472;SDS011;44775;51.564;5.460;2023-02-15T01:19:49;98.07;;;49.03;;
58472;SDS011;44775;51.564;5.460;2023-02-15T01:22:14;95.45;;;46.20;;
58472;SDS011;44775;51.564;5.460;2023-02-15T01:24:39;102.78;;;46.38;;
58472;SDS011;44775;51.564;5.460;2023-02-15T01:27:05;89.75;;;43.05;;
58472;SDS011;44775;51.564;5.460;2023-02-15T01:29:30;89.45;;;42.63;;
58472;SDS011;44775;51.564;5.460;2023-02-15T01:31:56;90.60;;;42.83;;
58472;SDS011;44775;51.564;5.460;2023-02-15T01:34:21;101.65;;;43.97;;
58472;SDS011;44775;51.564;5.460;2023-02-15T01:36:47;100.32;;;45.83;;
58472;SDS011;44775;51.564;5.460;2023-02-15T01:39:13;99.75;;;45.60;;
58472;SDS011;44775;51.564;5.460;2023-02-15T01:41:38;100.80;;;45.33;;
58472;SDS011;44775;51.564;5.460;2023-02-15T01:44:40;89.28;;;42.65;;
58472;SDS011;44775;51.564;5.460;2023-02-15T01:47:07;88.88;;;43.63;;
58472;SDS011;44775;51.564;5.460;2023-02-15T01:49:35;100.00;;;46.28;;
58472;SDS011;44775;51.564;5.460;2023-02-15T01:52:01;92.40;;;44.40;;
58472;SDS011;44775;51.564;5.460;2023-02-15T01:54:30;97.55;;;46.58;;
58472;SDS011;44775;51.564;5.460;2023-02-15T01:57:03;88.93;;;43.58;;
58472;SDS011;44775;51.564;5.460;2023-02-15T01:59:40;83.18;;;41.55;;
58472;SDS011;44775;51.564;5.460;2023-02-15T02:02:08;79.18;;;40.08;;
58472;SDS011;44775;51.564;5.460;2023-02-15T02:07:14;83.95;;;39.92;;
58472;SDS011;44775;51.564;5.460;2023-02-15T02:09:42;89.38;;;40.78;;
58472;SDS011;44775;51.564;5.460;2023-02-15T02:12:09;91.60;;;41.42;;
58472;SDS011;44775;51.564;5.460;2023-02-15T02:14:35;92.45;;;46.20;;
58472;SDS011;44775;51.564;5.460;2023-02-15T02:17:05;78.22;;;39.95;;
58472;SDS011;44775;51.564;5.460;2023-02-15T02:34:19;83.50;;;39.83;;
58472;SDS011;44775;51.564;5.460;2023-02-15T02:48:00;83.50;;;40.95;;
58472;SDS011;44775;51.564;5.460;2023-02-15T02:50:30;84.13;;;40.95;;
58472;SDS011;44775;51.564;5.460;2023-02-15T02:52:56;90.45;;;40.85;;
58472;SDS011;44775;51.564;5.460;2023-02-15T02:55:25;84.25;;;40.92;;
58472;SDS011;44775;51.564;5.460;2023-02-15T02:58:09;84.32;;;39.13;;
58472;SDS011;44775;51.564;5.460;2023-02-15T03:00:48;73.18;;;37.10;;
58472;SDS011;44775;51.564;5.460;2023-02-15T03:03:25;83.60;;;39.35;;
58472;SDS011;44775;51.564;5.460;2023-02-15T03:05:58;90.80;;;39.33;;
58472;SDS011;44775;51.564;5.460;2023-02-15T03:10:56;83.43;;;39.15;;
58472;SDS011;44775;51.564;5.460;2023-02-15T03:13:24;75.97;;;36.83;;
58472;SDS011;44775;51.564;5.460;2023-02-15T03:15:51;84.95;;;40.03;;
58472;SDS011;44775;51.564;5.460;2023-02-15T03:18:38;79.18;;;40.13;;
58472;SDS011;44775;51.564;5.460;2023-02-15T03:21:08;81.47;;;38.45;;
58472;SDS011;44775;51.564;5.460;2023-02-15T03:26:13;76.90;;;37.85;;
58472;SDS011;44775;51.564;5.460;2023-02-15T03:28:41;81.43;;;37.28;;
58472;SDS011;44775;51.564;5.460;2023-02-15T03:31:10;77.50;;;37.13;;
58472;SDS011;44775;51.564;5.460;2023-02-15T03:33:40;82.40;;;40.35;;
58472;SDS011;44775;51.564;5.460;2023-02-15T03:36:24;90.13;;;40.85;;
58472;SDS011;44775;51.564;5.460;2023-02-15T03:39:03;91.25;;;40.60;;
58472;SDS011;44775;51.564;5.460;2023-02-15T03:41:39;100.90;;;41.35;;
58472;SDS011;44775;51.564;5.460;2023-02-15T03:44:15;97.82;;;40.08;;
58472;SDS011;44775;51.564;5.460;2023-02-15T03:46:47;97.78;;;41.30;;
58472;SDS011;44775;51.564;5.460;2023-02-15T03:49:22;99.22;;;38.95;;
58472;SDS011;44775;51.564;5.460;2023-02-15T03:51:59;99.20;;;41.97;;
58472;SDS011;44775;51.564;5.460;2023-02-15T03:54:28;94.55;;;39.83;;
58472;SDS011;44775;51.564;5.460;2023-02-15T03:57:16;101.22;;;39.80;;
58472;SDS011;44775;51.564;5.460;2023-02-15T04:00:25;88.80;;;37.90;;
58472;SDS011;44775;51.564;5.460;2023-02-15T04:03:11;92.75;;;38.60;;
58472;SDS011;44775;51.564;5.460;2023-02-15T04:05:41;98.95;;;39.83;;
58472;SDS011;44775;51.564;5.460;2023-02-15T04:08:08;95.40;;;38.88;;
58472;SDS011;44775;51.564;5.460;2023-02-15T04:10:34;85.32;;;35.42;;
58472;SDS011;44775;51.564;5.460;2023-02-15T04:13:18;102.32;;;39.58;;
58472;SDS011;44775;51.564;5.460;2023-02-15T04:15:45;94.43;;;38.75;;
58472;SDS011;44775;51.564;5.460;2023-02-15T04:18:29;94.97;;;39.72;;
58472;SDS011;44775;51.564;5.460;2023-02-15T04:21:15;99.20;;;41.05;;
58472;SDS011;44775;51.564;5.460;2023-02-15T04:23:58;105.00;;;41.05;;
58472;SDS011;44775;51.564;5.460;2023-02-15T04:26:42;90.95;;;38.15;;
58472;SDS011;44775;51.564;5.460;2023-02-15T04:29:08;99.13;;;40.25;;
58472;SDS011;44775;51.564;5.460;2023-02-15T04:31:33;98.53;;;39.05;;
58472;SDS011;44775;51.564;5.460;2023-02-15T04:33:58;97.75;;;38.30;;
58472;SDS011;44775;51.564;5.460;2023-02-15T04:36:24;93.90;;;38.95;;
58472;SDS011;44775;51.564;5.460;2023-02-15T04:38:49;88.93;;;38.25;;
58472;SDS011;44775;51.564;5.460;2023-02-15T04:41:15;85.93;;;37.38;;
58472;SDS011;44775;51.564;5.460;2023-02-15T04:43:40;83.15;;;35.25;;
58472;SDS011;44775;51.564;5.460;2023-02-15T04:46:05;88.35;;;37.72;;
58472;SDS011;44775;51.564;5.460;2023-02-15T04:48:31;93.10;;;39.85;;
58472;SDS011;44775;51.564;5.460;2023-02-15T04:50:56;88.40;;;37.30;;
58472;SDS011;44775;51.564;5.460;2023-02-15T04:53:22;85.15;;;35.40;;
58472;SDS011;44775;51.564;5.460;2023-02-15T04:55:47;86.38;;;37.60;;
58472;SDS011;44775;51.564;5.460;2023-02-15T04:58:13;86.65;;;36.40;;
58472;SDS011;44775;51.564;5.460;2023-02-15T05:00:38;87.55;;;39.80;;
58472;SDS011;44775;51.564;5.460;2023-02-15T05:03:04;80.47;;;35.78;;
58472;SDS011;44775;51.564;5.460;2023-02-15T05:05:29;83.93;;;35.53;;
58472;SDS011;44775;51.564;5.460;2023-02-15T05:07:55;75.35;;;34.90;;
58472;SDS011;44775;51.564;5.460;2023-02-15T05:10:20;75.68;;;34.03;;
58472;SDS011;44775;51.564;5.460;2023-02-15T05:12:45;67.88;;;31.73;;
58472;SDS011;44775;51.564;5.460;2023-02-15T05:15:11;81.20;;;36.28;;
58472;SDS011;44775;51.564;5.460;2023-02-15T05:17:36;81.32;;;37.50;;
58472;SDS011;44775;51.564;5.460;2023-02-15T05:20:02;77.63;;;35.47;;
58472;SDS011;44775;51.564;5.460;2023-02-15T05:22:29;79.55;;;35.85;;
58472;SDS011;44775;51.564;5.460;2023-02-15T05:24:54;86.00;;;36.30;;
58472;SDS011;44775;51.564;5.460;2023-02-15T05:27:38;80.25;;;35.90;;
58472;SDS011;44775;51.564;5.460;2023-02-15T05:30:22;75.78;;;33.30;;
58472;SDS011;44775;51.564;5.460;2023-02-15T05:32:48;79.45;;;34.53;;
58472;SDS011;44775;51.564;5.460;2023-02-15T05:35:16;82.85;;;36.72;;
58472;SDS011;44775;51.564;5.460;2023-02-15T05:37:43;85.75;;;35.35;;
58472;SDS011;44775;51.564;5.460;2023-02-15T05:40:09;88.38;;;37.90;;
58472;SDS011;44775;51.564;5.460;2023-02-15T05:42:34;76.35;;;35.25;;
58472;SDS011;44775;51.564;5.460;2023-02-15T05:45:00;83.05;;;36.72;;
58472;SDS011;44775;51.564;5.460;2023-02-15T05:47:25;84.80;;;37.78;;
58472;SDS011;44775;51.564;5.460;2023-02-15T05:49:51;82.10;;;35.05;;
58472;SDS011;44775;51.564;5.460;2023-02-15T05:52:16;86.07;;;37.33;;
58472;SDS011;44775;51.564;5.460;2023-02-15T05:54:42;82.45;;;35.75;;
58472;SDS011;44775;51.564;5.460;2023-02-15T05:57:07;82.97;;;35.30;;
58472;SDS011;44775;51.564;5.460;2023-02-15T05:59:33;85.63;;;35.50;;
58472;SDS011;44775;51.564;5.460;2023-02-15T06:01:58;87.57;;;36.05;;
58472;SDS011;44775;51.564;5.460;2023-02-15T06:04:23;73.40;;;33.83;;
58472;SDS011;44775;51.564;5.460;2023-02-15T06:06:49;77.78;;;35.33;;
58472;SDS011;44775;51.564;5.460;2023-02-15T06:09:14;85.28;;;36.38;;
58472;SDS011;44775;51.564;5.460;2023-02-15T06:11:43;91.22;;;36.67;;
58472;SDS011;44775;51.564;5.460;2023-02-15T06:14:09;89.95;;;37.08;;
58472;SDS011;44775;51.564;5.460;2023-02-15T06:16:34;97.40;;;36.63;;
58472;SDS011;44775;51.564;5.460;2023-02-15T06:18:59;86.20;;;36.35;;
58472;SDS011;44775;51.564;5.460;2023-02-15T06:21:26;89.10;;;37.55;;
58472;SDS011;44775;51.564;5.460;2023-02-15T06:23:51;88.07;;;38.08;;
58472;SDS011;44775;51.564;5.460;2023-02-15T06:26:17;88.93;;;36.42;;
58472;SDS011;44775;51.564;5.460;2023-02-15T06:28:42;92.35;;;36.55;;
58472;SDS011;44775;51.564;5.460;2023-02-15T06:31:08;92.68;;;37.13;;
58472;SDS011;44775;51.564;5.460;2023-02-15T06:33:33;91.30;;;37.00;;
58472;SDS011;44775;51.564;5.460;2023-02-15T06:35:59;93.10;;;37.50;;
58472;SDS011;44775;51.564;5.460;2023-02-15T06:38:24;90.55;;;37.15;;
58472;SDS011;44775;51.564;5.460;2023-02-15T06:40:50;91.28;;;37.55;;
58472;SDS011;44775;51.564;5.460;2023-02-15T06:43:15;96.30;;;37.55;;
58472;SDS011;44775;51.564;5.460;2023-02-15T06:45:41;87.20;;;37.30;;
58472;SDS011;44775;51.564;5.460;2023-02-15T06:48:06;85.72;;;35.00;;
58472;SDS011;44775;51.564;5.460;2023-02-15T06:50:33;95.18;;;39.47;;
58472;SDS011;44775;51.564;5.460;2023-02-15T06:52:58;96.90;;;38.13;;
58472;SDS011;44775;51.564;5.460;2023-02-15T06:55:24;94.28;;;38.15;;
58472;SDS011;44775;51.564;5.460;2023-02-15T06:57:50;88.35;;;35.55;;
58472;SDS011;44775;51.564;5.460;2023-02-15T07:00:16;86.47;;;34.60;;
58472;SDS011;44775;51.564;5.460;2023-02-15T07:02:42;94.00;;;38.88;;
58472;SDS011;44775;51.564;5.460;2023-02-15T07:05:08;90.70;;;38.78;;
58472;SDS011;44775;51.564;5.460;2023-02-15T07:07:34;86.93;;;35.72;;
58472;SDS011;44775;51.564;5.460;2023-02-15T07:09:59;96.07;;;38.55;;
58472;SDS011;44775;51.564;5.460;2023-02-15T07:12:24;82.22;;;36.55;;
58472;SDS011;44775;51.564;5.460;2023-02-15T07:15:16;87.18;;;36.28;;
58472;SDS011;44775;51.564;5.460;2023-02-15T07:17:43;83.25;;;36.70;;
58472;SDS011;44775;51.564;5.460;2023-02-15T07:20:10;92.50;;;38.05;;
58472;SDS011;44775;51.564;5.460;2023-02-15T07:22:41;98.63;;;38.65;;
58472;SDS011;44775;51.564;5.460;2023-02-15T07:25:08;94.00;;;35.97;;
58472;SDS011;44775;51.564;5.460;2023-02-15T07:27:35;104.00;;;39.78;;
58472;SDS011;44775;51.564;5.460;2023-02-15T07:30:00;97.35;;;36.47;;
58472;SDS011;44775;51.564;5.460;2023-02-15T07:32:29;90.40;;;31.58;;
58472;SDS011;44775;51.564;5.460;2023-02-15T07:34:56;103.25;;;38.90;;
58472;SDS011;44775;51.564;5.460;2023-02-15T07:37:22;90.53;;;37.40;;
58472;SDS011;44775;51.564;5.460;2023-02-15T07:39:47;92.65;;;34.15;;
58472;SDS011;44775;51.564;5.460;2023-02-15T07:42:13;92.18;;;36.00;;
58472;SDS011;44775;51.564;5.460;2023-02-15T07:44:38;95.78;;;41.20;;
58472;SDS011;44775;51.564;5.460;2023-02-15T07:47:04;97.28;;;38.50;;
58472;SDS011;44775;51.564;5.460;2023-02-15T07:49:29;101.13;;;39.72;;
58472;SDS011;44775;51.564;5.460;2023-02-15T07:51:55;99.97;;;41.83;;
58472;SDS011;44775;51.564;5.460;2023-02-15T07:54:20;93.88;;;40.83;;
58472;SDS011;44775;51.564;5.460;2023-02-15T07:56:45;110.65;;;42.55;;
58472;SDS011;44775;51.564;5.460;2023-02-15T07:59:11;101.43;;;39.97;;
58472;SDS011;44775;51.564;5.460;2023-02-15T08:01:37;107.60;;;37.28;;
58472;SDS011;44775;51.564;5.460;2023-02-15T08:04:04;136.02;;;43.30;;
58472;SDS011;44775;51.564;5.460;2023-02-15T08:06:32;103.78;;;42.20;;
58472;SDS011;44775;51.564;5.460;2023-02-15T08:08:59;104.43;;;43.25;;
58472;SDS011;44775;51.564;5.460;2023-02-15T08:11:26;95.78;;;42.30;;
58472;SDS011;44775;51.564;5.460;2023-02-15T08:16:35;100.55;;;41.50;;
58472;SDS011;44775;51.564;5.460;2023-02-15T08:19:23;91.28;;;39.45;;
58472;SDS011;44775;51.564;5.460;2023-02-15T08:22:06;90.97;;;39.22;;
58472;SDS011;44775;51.564;5.460;2023-02-15T08:26:59;97.50;;;40.45;;
58472;SDS011;44775;51.564;5.460;2023-02-15T08:29:27;103.72;;;44.42;;
58472;SDS011;44775;51.564;5.460;2023-02-15T08:31:55;95.72;;;43.47;;
58472;SDS011;44775;51.564;5.460;2023-02-15T08:34:27;97.50;;;44.67;;
58472;SDS011;44775;51.564;5.460;2023-02-15T08:36:53;99.25;;;43.25;;
58472;SDS011;44775;51.564;5.460;2023-02-15T08:39:19;99.65;;;44.38;;
58472;SDS011;44775;51.564;5.460;2023-02-15T08:41:45;91.57;;;42.55;;
58472;SDS011;44775;51.564;5.460;2023-02-15T08:44:12;102.50;;;47.80;;
58472;SDS011;44775;51.564;5.460;2023-02-15T08:46:39;93.43;;;47.22;;
58472;SDS011;44775;51.564;5.460;2023-02-15T08:49:07;91.55;;;46.33;;
58472;SDS011;44775;51.564;5.460;2023-02-15T08:51:34;88.28;;;42.83;;
58472;SDS011;44775;51.564;5.460;2023-02-15T08:54:03;96.68;;;47.83;;
58472;SDS011;44775;51.564;5.460;2023-02-15T08:56:34;85.75;;;45.50;;
58472;SDS011;44775;51.564;5.460;2023-02-15T08:59:04;81.13;;;42.30;;
58472;SDS011;44775;51.564;5.460;2023-02-15T09:01:32;87.80;;;44.20;;
58472;SDS011;44775;51.564;5.460;2023-02-15T09:04:00;78.30;;;41.65;;
58472;SDS011;44775;51.564;5.460;2023-02-15T09:06:27;74.87;;;37.93;;
58472;SDS011;44775;51.564;5.460;2023-02-15T09:08:53;66.60;;;36.78;;
58472;SDS011;44775;51.564;5.460;2023-02-15T09:11:21;71.47;;;37.60;;
58472;SDS011;44775;51.564;5.460;2023-02-15T09:13:55;80.32;;;41.78;;
58472;SDS011;44775;51.564;5.460;2023-02-15T09:16:26;69.82;;;39.15;;
58472;SDS011;44775;51.564;5.460;2023-02-15T09:18:55;61.03;;;31.40;;
58472;SDS011;44775;51.564;5.460;2023-02-15T09:21:26;65.18;;;35.28;;
58472;SDS011;44775;51.564;5.460;2023-02-15T09:23:55;62.90;;;33.35;;
58472;SDS011;44775;51.564;5.460;2023-02-15T09:26:23;73.13;;;41.40;;
58472;SDS011;44775;51.564;5.460;2023-02-15T09:28:53;65.53;;;36.35;;
58472;SDS011;44775;51.564;5.460;2023-02-15T09:31:24;76.25;;;42.72;;
58472;SDS011;44775;51.564;5.460;2023-02-15T09:33:52;78.03;;;41.85;;
58472;SDS011;44775;51.564;5.460;2023-02-15T09:36:24;73.18;;;38.35;;
58472;SDS011;44775;51.564;5.460;2023-02-15T09:38:54;73.45;;;37.72;;
58472;SDS011;44775;51.564;5.460;2023-02-15T09:55:57;51.75;;;31.42;;
58472;SDS011;44775;51.564;5.460;2023-02-15T10:01:17;48.97;;;30.48;;
58472;SDS011;44775;51.564;5.460;2023-02-15T10:09:39;44.55;;;28.58;;
58472;SDS011;44775;51.564;5.460;2023-02-15T10:27:06;45.72;;;27.02;;
58472;SDS011;44775;51.564;5.460;2023-02-15T10:29:37;41.70;;;26.08;;
58472;SDS011;44775;51.564;5.460;2023-02-15T10:34:43;42.00;;;24.50;;
58472;SDS011;44775;51.564;5.460;2023-02-15T10:37:19;41.92;;;24.88;;
58472;SDS011;44775;51.564;5.460;2023-02-15T10:42:30;42.50;;;25.65;;
58472;SDS011;44775;51.564;5.460;2023-02-15T10:50:16;43.15;;;25.35;;
58472;SDS011;44775;51.564;5.460;2023-02-15T10:53:06;42.05;;;24.63;;
58472;SDS011;44775;51.564;5.460;2023-02-15T10:55:55;40.97;;;24.52;;
58472;SDS011;44775;51.564;5.460;2023-02-15T11:01:34;39.63;;;24.88;;
58472;SDS011;44775;51.564;5.460;2023-02-15T11:06:43;41.35;;;24.27;;
58472;SDS011;44775;51.564;5.460;2023-02-15T11:09:17;41.53;;;24.17;;
58472;SDS011;44775;51.564;5.460;2023-02-15T11:14:15;38.30;;;23.63;;
58472;SDS011;44775;51.564;5.460;2023-02-15T11:16:49;34.75;;;23.27;;
58472;SDS011;44775;51.564;5.460;2023-02-15T11:19:19;40.78;;;24.95;;
58472;SDS011;44775;51.564;5.460;2023-02-15T11:21:50;38.97;;;24.05;;
58472;SDS011;44775;51.564;5.460;2023-02-15T11:24:24;40.50;;;23.52;;
58472;SDS011;44775;51.564;5.460;2023-02-15T11:29:50;37.83;;;23.95;;
58472;SDS011;44775;51.564;5.460;2023-02-15T11:32:45;40.33;;;24.00;;
58472;SDS011;44775;51.564;5.460;2023-02-15T11:37:40;38.28;;;22.85;;
58472;SDS011;44775;51.564;5.460;2023-02-15T11:40:25;36.30;;;23.27;;
58472;SDS011;44775;51.564;5.460;2023-02-15T11:43:00;39.40;;;24.08;;
58472;SDS011;44775;51.564;5.460;2023-02-15T11:45:31;40.22;;;23.50;;
58472;SDS011;44775;51.564;5.460;2023-02-15T11:47:59;38.50;;;23.38;;
58472;SDS011;44775;51.564;5.460;2023-02-15T11:50:27;40.17;;;23.83;;
58472;SDS011;44775;51.564;5.460;2023-02-15T11:53:03;39.53;;;23.27;;
58472;SDS011;44775;51.564;5.460;2023-02-15T11:55:32;35.85;;;22.52;;
58472;SDS011;44775;51.564;5.460;2023-02-15T12:00:51;36.78;;;22.73;;
58472;SDS011;44775;51.564;5.460;2023-02-15T12:03:22;41.40;;;23.65;;
58472;SDS011;44775;51.564;5.460;2023-02-15T12:05:57;39.92;;;24.08;;
58472;SDS011;44775;51.564;5.460;2023-02-15T12:08:30;38.58;;;24.10;;
58472;SDS011;44775;51.564;5.460;2023-02-15T12:11:12;37.55;;;23.77;;
58472;SDS011;44775;51.564;5.460;2023-02-15T12:13:56;38.83;;;24.17;;
58472;SDS011;44775;51.564;5.460;2023-02-15T12:16:27;37.55;;;24.20;;
58472;SDS011;44775;51.564;5.460;2023-02-15T12:18:57;41.90;;;25.17;;
58472;SDS011;44775;51.564;5.460;2023-02-15T12:23:53;39.97;;;24.85;;
58472;SDS011;44775;51.564;5.460;2023-02-15T12:26:28;40.15;;;25.58;;
58472;SDS011;44775;51.564;5.460;2023-02-15T12:28:57;39.30;;;25.35;;
58472;SDS011;44775;51.564;5.460;2023-02-15T12:34:02;40.05;;;26.15;;
58472;SDS011;44775;51.564;5.460;2023-02-15T12:36:42;41.65;;;25.20;;
58472;SDS011;44775;51.564;5.460;2023-02-15T12:41:37;39.90;;;25.98;;
58472;SDS011;44775;51.564;5.460;2023-02-15T12:46:55;41.78;;;23.92;;
58472;SDS011;44775;51.564;5.460;2023-02-15T12:49:23;40.60;;;25.65;;
58472;SDS011;44775;51.564;5.460;2023-02-15T12:51:50;38.08;;;24.70;;
58472;SDS011;44775;51.564;5.460;2023-02-15T12:57:21;40.30;;;25.55;;
58472;SDS011;44775;51.564;5.460;2023-02-15T12:59:53;42.38;;;24.63;;
58472;SDS011;44775;51.564;5.460;2023-02-15T13:05:10;41.30;;;23.95;;
58472;SDS011;44775;51.564;5.460;2023-02-15T13:08:14;39.35;;;24.70;;
58472;SDS011;44775;51.564;5.460;2023-02-15T13:10:51;40.03;;;24.52;;
58472;SDS011;44775;51.564;5.460;2023-02-15T13:13:23;42.90;;;25.42;;
58472;SDS011;44775;51.564;5.460;2023-02-15T13:15:52;41.05;;;25.02;;
58472;SDS011;44775;51.564;5.460;2023-02-15T13:18:42;41.25;;;25.85;;
58472;SDS011;44775;51.564;5.460;2023-02-15T13:21:15;39.63;;;24.20;;
58472;SDS011;44775;51.564;5.460;2023-02-15T13:26:49;42.17;;;25.33;;
58472;SDS011;44775;51.564;5.460;2023-02-15T13:29:49;40.20;;;23.92;;
58472;SDS011;44775;51.564;5.460;2023-02-15T13:34:56;43.85;;;25.65;;
58472;SDS011;44775;51.564;5.460;2023-02-15T13:40:15;39.45;;;24.63;;
58472;SDS011;44775;51.564;5.460;2023-02-15T13:42:48;39.30;;;24.17;;
58472;SDS011;44775;51.564;5.460;2023-02-15T13:48:10;42.28;;;23.85;;
58472;SDS011;44775;51.564;5.460;2023-02-15T13:50:42;39.13;;;23.52;;
58472;SDS011;44775;51.564;5.460;2023-02-15T13:53:48;37.80;;;24.45;;
58472;SDS011;44775;51.564;5.460;2023-02-15T13:57:04;40.70;;;23.63;;
58472;SDS011;44775;51.564;5.460;2023-02-15T14:02:43;41.22;;;24.65;;
58472;SDS011;44775;51.564;5.460;2023-02-15T14:08:04;41.88;;;23.75;;
58472;SDS011;44775;51.564;5.460;2023-02-15T14:16:27;42.80;;;24.83;;
58472;SDS011;44775;51.564;5.460;2023-02-15T14:19:36;43.67;;;25.80;;
58472;SDS011;44775;51.564;5.460;2023-02-15T14:30:44;39.58;;;24.13;;
58472;SDS011;44775;51.564;5.460;2023-02-15T14:35:50;46.30;;;25.20;;
58472;SDS011;44775;51.564;5.460;2023-02-15T14:49:10;45.95;;;27.25;;
58472;SDS011;44775;51.564;5.460;2023-02-15T14:56:42;44.88;;;26.55;;
58472;SDS011;44775;51.564;5.460;2023-02-15T15:01:37;42.17;;;25.77;;
58472;SDS011;44775;51.564;5.460;2023-02-15T15:04:14;43.80;;;25.90;;
58472;SDS011;44775;51.564;5.460;2023-02-15T15:06:57;46.60;;;25.65;;
58472;SDS011;44775;51.564;5.460;2023-02-15T15:09:28;46.37;;;26.10;;
58472;SDS011;44775;51.564;5.460;2023-02-15T15:12:12;42.72;;;25.02;;
58472;SDS011;44775;51.564;5.460;2023-02-15T15:14:47;47.92;;;24.52;;
58472;SDS011;44775;51.564;5.460;2023-02-15T15:20:01;42.60;;;24.42;;
58472;SDS011;44775;51.564;5.460;2023-02-15T15:22:36;50.08;;;26.17;;
58472;SDS011;44775;51.564;5.460;2023-02-15T15:27:56;43.35;;;25.45;;
58472;SDS011;44775;51.564;5.460;2023-02-15T15:50:15;47.30;;;26.63;;
58472;SDS011;44775;51.564;5.460;2023-02-15T15:52:44;46.97;;;26.73;;
58472;SDS011;44775;51.564;5.460;2023-02-15T15:55:18;43.97;;;25.85;;
58472;SDS011;44775;51.564;5.460;2023-02-15T15:57:48;46.97;;;25.95;;
58472;SDS011;44775;51.564;5.460;2023-02-15T16:00:29;45.75;;;26.60;;
58472;SDS011;44775;51.564;5.460;2023-02-15T16:03:20;42.85;;;25.13;;
58472;SDS011;44775;51.564;5.460;2023-02-15T16:05:46;48.50;;;27.25;;
58472;SDS011;44775;51.564;5.460;2023-02-15T16:08:13;47.70;;;28.10;;
58472;SDS011;44775;51.564;5.460;2023-02-15T16:10:39;47.67;;;26.20;;
58472;SDS011;44775;51.564;5.460;2023-02-15T16:13:05;45.92;;;26.60;;
58472;SDS011;44775;51.564;5.460;2023-02-15T16:15:36;47.80;;;28.08;;
58472;SDS011;44775;51.564;5.460;2023-02-15T16:18:11;44.47;;;25.98;;
58472;SDS011;44775;51.564;5.460;2023-02-15T16:20:40;45.03;;;25.58;;
58472;SDS011;44775;51.564;5.460;2023-02-15T16:29:18;45.28;;;24.40;;
58472;SDS011;44775;51.564;5.460;2023-02-15T16:32:01;45.75;;;26.50;;
58472;SDS011;44775;51.564;5.460;2023-02-15T16:34:30;42.08;;;24.38;;
58472;SDS011;44775;51.564;5.460;2023-02-15T16:37:13;42.70;;;23.77;;
58472;SDS011;44775;51.564;5.460;2023-02-15T16:39:42;46.45;;;25.33;;
58472;SDS011;44775;51.564;5.460;2023-02-15T16:42:08;46.53;;;25.45;;
58472;SDS011;44775;51.564;5.460;2023-02-15T16:44:35;46.38;;;24.80;;
58472;SDS011;44775;51.564;5.460;2023-02-15T16:47:01;57.42;;;35.25;;
58472;SDS011;44775;51.564;5.460;2023-02-15T16:49:27;55.00;;;32.45;;
58472;SDS011;44775;51.564;5.460;2023-02-15T16:52:03;55.38;;;31.95;;
58472;SDS011;44775;51.564;5.460;2023-02-15T16:54:32;50.10;;;28.42;;
58472;SDS011;44775;51.564;5.460;2023-02-15T16:56:58;49.30;;;28.30;;
58472;SDS011;44775;51.564;5.460;2023-02-15T17:01:52;46.70;;;26.70;;
58472;SDS011;44775;51.564;5.460;2023-02-15T17:09:31;49.40;;;27.45;;
58472;SDS011;44775;51.564;5.460;2023-02-15T17:11:57;52.88;;;28.70;;
58472;SDS011;44775;51.564;5.460;2023-02-15T17:14:31;52.17;;;27.02;;
58472;SDS011;44775;51.564;5.460;2023-02-15T17:17:00;50.75;;;28.80;;
58472;SDS011;44775;51.564;5.460;2023-02-15T17:19:31;51.30;;;27.73;;
58472;SDS011;44775;51.564;5.460;2023-02-15T17:22:05;52.20;;;28.25;;
58472;SDS011;44775;51.564;5.460;2023-02-15T17:27:10;50.30;;;28.20;;
58472;SDS011;44775;51.564;5.460;2023-02-15T17:29:41;53.55;;;29.08;;
58472;SDS011;44775;51.564;5.460;2023-02-15T17:32:20;51.05;;;27.50;;
58472;SDS011;44775;51.564;5.460;2023-02-15T17:34:56;54.85;;;27.42;;
58472;SDS011;44775;51.564;5.460;2023-02-15T17:40:02;52.03;;;27.00;;
58472;SDS011;44775;51.564;5.460;2023-02-15T17:42:39;51.53;;;28.27;;
58472;SDS011;44775;51.564;5.460;2023-02-15T17:45:04;54.85;;;28.30;;
58472;SDS011;44775;51.564;5.460;2023-02-15T17:47:30;57.38;;;28.98;;
58472;SDS011;44775;51.564;5.460;2023-02-15T17:49:56;54.03;;;28.40;;
58472;SDS011;44775;51.564;5.460;2023-02-15T17:52:21;51.08;;;28.10;;
58472;SDS011;44775;51.564;5.460;2023-02-15T17:54:49;53.47;;;28.38;;
58472;SDS011;44775;51.564;5.460;2023-02-15T17:57:33;52.00;;;28.05;;
58472;SDS011;44775;51.564;5.460;2023-02-15T17:59:58;53.33;;;29.23;;
58472;SDS011;44775;51.564;5.460;2023-02-15T18:02:42;54.35;;;28.00;;
58472;SDS011;44775;51.564;5.460;2023-02-15T18:05:26;53.25;;;28.17;;
58472;SDS011;44775;51.564;5.460;2023-02-15T18:08:12;59.38;;;32.10;;
58472;SDS011;44775;51.564;5.460;2023-02-15T18:10:57;52.67;;;30.45;;
58472;SDS011;44775;51.564;5.460;2023-02-15T18:13:42;58.13;;;32.40;;
58472;SDS011;44775;51.564;5.460;2023-02-15T18:16:12;56.38;;;30.38;;
58472;SDS011;44775;51.564;5.460;2023-02-15T18:18:39;54.53;;;29.77;;